Time;durP1;ratioP1;P1;durP2;ratioP2;P2;SDS_P1;SDS_P2;PMS_P1;PMS_P2;Temp;Humidity;BMP_temperature;BMP_pressure;BME280_temperature;BME280_humidity;BME280_pressure;Samples;Min_cycle;Max_cycle;Signal;HPM_P1;HPM_P2
2023/01/26 00:00:59;;;;;;;179.40;81.33;;;;;;;-2.55;100.00;102410.16;5069368;28;20282;-79
2023/01/26 00:03:25;;;;;;;168.80;76.73;;;;;;;-2.59;100.00;102411.25;5079413;28;20297;-79
2023/01/26 00:05:50;;;;;;;174.30;77.63;;;;;;;-2.58;100.00;102408.53;5080730;28;20061;-79
2023/01/26 00:08:16;;;;;;;40.60;17.57;;;;;;;-2.43;100.00;102411.25;5063010;28;20851;-79
2023/01/26 00:10:48;;;;;;;60.83;21.67;;;;;;;-2.43;100.00;102405.94;5060516;28;20036;-79
2023/01/26 00:13:15;;;;;;;173.57;77.27;;;;;;;-2.58;100.00;102402.38;5088326;28;20028;-86
2023/01/26 00:15:41;;;;;;;191.77;81.87;;;;;;;-2.59;100.00;102401.50;5097896;28;20388;-86
2023/01/26 00:18:08;;;;;;;201.07;81.87;;;;;;;-2.59;100.00;102395.34;5091062;28;20381;-86
2023/01/26 00:20:33;;;;;;;202.37;81.73;;;;;;;-2.57;100.00;102394.31;5089600;28;20459;-86
2023/01/26 00:22:59;;;;;;;196.00;79.33;;;;;;;-2.56;100.00;102396.03;5093648;28;20380;-86
2023/01/26 00:25:24;;;;;;;193.50;79.13;;;;;;;-2.55;100.00;102397.72;5096027;28;20099;-86
2023/01/26 00:27:49;;;;;;;178.77;76.67;;;;;;;-2.50;100.00;102388.63;5091883;28;20074;-85
2023/01/26 00:30:15;;;;;;;165.23;74.57;;;;;;;-2.55;100.00;102388.91;5098255;28;20441;-86
2023/01/26 00:32:40;;;;;;;164.97;72.03;;;;;;;-2.53;100.00;102381.69;5075934;28;20118;-86
2023/01/26 00:35:08;;;;;;;149.23;67.70;;;;;;;-2.53;100.00;102383.50;5113060;27;20040;-80
2023/01/26 00:37:33;;;;;;;163.03;70.37;;;;;;;-2.61;100.00;102373.31;5081947;28;20067;-79
2023/01/26 00:39:58;;;;;;;160.13;69.47;;;;;;;-2.58;100.00;102371.38;5082167;28;20384;-79
2023/01/26 00:42:24;;;;;;;153.33;67.80;;;;;;;-2.59;100.00;102377.59;5079221;28;20036;-79
2023/01/26 00:44:49;;;;;;;94.77;31.30;;;;;;;-2.51;100.00;102373.69;5082121;28;20091;-79
2023/01/26 00:47:16;;;;;;;157.63;68.97;;;;;;;-2.59;100.00;102372.31;5080721;28;20040;-79
2023/01/26 00:49:41;;;;;;;177.60;74.33;;;;;;;-2.61;100.00;102366.25;5078783;28;20032;-79
2023/01/26 00:52:07;;;;;;;177.37;73.57;;;;;;;-2.58;100.00;102358.09;5092616;28;20285;-85
2023/01/26 00:54:32;;;;;;;61.13;22.43;;;;;;;-2.51;100.00;102355.09;5089953;28;20035;-85
2023/01/26 00:56:58;;;;;;;179.60;74.30;;;;;;;-2.56;100.00;102350.03;5095904;28;20039;-86
2023/01/26 00:59:24;;;;;;;160.03;67.83;;;;;;;-2.57;100.00;102351.84;5093480;28;20066;-85
2023/01/26 01:01:50;;;;;;;167.97;70.80;;;;;;;-2.52;100.00;102351.56;5091650;28;20016;-85
2023/01/26 01:04:15;;;;;;;170.27;71.27;;;;;;;-2.55;100.00;102352.59;5091637;28;20297;-85
2023/01/26 01:06:41;;;;;;;152.03;66.23;;;;;;;-2.52;100.00;102343.63;5090293;28;20028;-85
2023/01/26 01:09:07;;;;;;;157.07;68.27;;;;;;;-2.53;100.00;102341.06;5092805;28;21822;-85
2023/01/26 01:11:33;;;;;;;160.80;70.20;;;;;;;-2.53;100.00;102339.25;5092304;28;20305;-86
2023/01/26 01:13:58;;;;;;;168.40;70.53;;;;;;;-2.55;100.00;102333.19;5094865;28;20059;-85
2023/01/26 01:16:24;;;;;;;165.17;70.97;;;;;;;-2.52;100.00;102340.97;5090896;28;20504;-86
2023/01/26 01:18:55;;;;;;;151.83;67.93;;;;;;;-2.53;100.00;102352.50;5086321;28;20023;-85
2023/01/26 01:21:22;;;;;;;150.77;66.97;;;;;;;-2.51;100.00;102345.31;5094423;28;20474;-79
2023/01/26 01:23:48;;;;;;;159.83;67.97;;;;;;;-2.50;100.00;102348.81;5077700;28;20348;-79
2023/01/26 01:26:14;;;;;;;155.77;67.87;;;;;;;-2.48;100.00;102352.25;5076933;28;20294;-79
2023/01/26 01:28:41;;;;;;;142.40;66.37;;;;;;;-2.50;100.00;102332.91;5078640;28;20040;-79
2023/01/26 01:31:10;;;;;;;137.37;63.20;;;;;;;-2.52;100.00;102330.34;5078163;28;20331;-79
2023/01/26 01:33:36;;;;;;;135.53;63.53;;;;;;;-2.52;100.00;102332.16;5083511;28;20288;-79
2023/01/26 01:36:04;;;;;;;137.80;66.30;;;;;;;-2.56;100.00;102337.66;5077730;28;20290;-79
2023/01/26 01:38:30;;;;;;;143.47;66.13;;;;;;;-2.51;100.00;102340.03;5077207;28;20026;-79
2023/01/26 01:40:56;;;;;;;133.80;61.97;;;;;;;-2.50;100.00;102340.88;5079875;28;22096;-79
2023/01/26 01:43:22;;;;;;;127.70;58.83;;;;;;;-2.51;100.00;102337.38;5089980;28;20058;-85
2023/01/26 01:45:49;;;;;;;127.53;59.47;;;;;;;-2.56;100.00;102344.72;5094414;28;20032;-86
2023/01/26 01:48:48;;;;;;;122.07;61.13;;;;;;;-2.55;100.00;102342.00;5090400;28;20286;-85
2023/01/26 01:51:22;;;;;;;120.80;58.87;;;;;;;-2.49;100.00;102346.06;5087396;28;20294;-85
2023/01/26 01:53:51;;;;;;;117.75;58.88;;;;;;;-2.51;100.00;102349.78;5079568;28;20290;-85
2023/01/26 01:56:22;;;;;;;121.50;59.13;;;;;;;-2.53;100.00;102349.00;5095879;28;20030;-85
2023/01/26 01:58:52;;;;;;;122.97;59.17;;;;;;;-2.53;100.00;102339.25;5098213;28;20289;-85
2023/01/26 02:01:18;;;;;;;125.57;59.53;;;;;;;-2.49;100.00;102342.59;5088546;28;20308;-85
2023/01/26 02:03:46;;;;;;;57.40;21.77;;;;;;;-2.48;100.00;102336.34;5090758;28;20645;-79
2023/01/26 02:06:34;;;;;;;127.03;61.07;;;;;;;-2.53;100.00;102346.34;5070139;28;20035;-79
2023/01/26 02:08:59;;;;;;;121.47;58.60;;;;;;;-2.53;100.00;102333.94;5080565;28;20289;-79
2023/01/26 02:11:40;;;;;;;126.63;58.83;;;;;;;-2.56;100.00;102335.00;5078408;28;20320;-79
2023/01/26 02:14:09;;;;;;;132.33;62.37;;;;;;;-2.58;100.00;102323.59;5077857;28;20361;-79
2023/01/26 02:16:35;;;;;;;129.63;60.10;;;;;;;-2.50;100.00;102314.31;5081250;28;20384;-79
2023/01/26 02:19:01;;;;;;;144.67;63.97;;;;;;;-2.55;100.00;102311.94;5079617;28;20883;-79
2023/01/26 02:21:26;;;;;;;134.57;62.17;;;;;;;-2.48;100.00;102307.97;5077879;28;20562;-79
2023/01/26 02:24:06;;;;;;;133.83;60.97;;;;;;;-2.43;100.00;102321.00;5084379;28;20043;-79
2023/01/26 02:26:33;;;;;;;125.97;58.70;;;;;;;-2.42;100.00;102309.41;5088410;28;20024;-86
2023/01/26 02:29:00;;;;;;;131.13;59.20;;;;;;;-2.46;100.00;102315.84;5089040;28;20282;-86
2023/01/26 02:31:26;;;;;;;140.10;62.40;;;;;;;-2.45;100.00;102314.91;5093394;28;20285;-86
2023/01/26 02:33:52;;;;;;;140.73;61.73;;;;;;;-2.41;100.00;102319.97;5097919;28;20470;-85
2023/01/26 02:36:17;;;;;;;128.87;59.07;;;;;;;-2.41;100.00;102319.09;5073630;28;20378;-79
2023/01/26 02:38:50;;;;;;;141.80;61.07;;;;;;;-2.46;100.00;102305.22;5083455;28;20099;-79
2023/01/26 02:44:04;;;;;;;131.57;58.70;;;;;;;-2.41;100.00;102309.34;5081250;28;20342;-79
2023/01/26 02:46:29;;;;;;;134.47;58.90;;;;;;;-2.36;100.00;102306.41;5083959;28;20633;-79
2023/01/26 02:51:38;;;;;;;133.50;58.67;;;;;;;-2.36;100.00;102301.09;5080972;28;20043;-79
2023/01/26 02:54:04;;;;;;;134.73;60.70;;;;;;;-2.39;100.00;102299.47;5081825;28;20297;-79
2023/01/26 02:56:29;;;;;;;140.67;60.33;;;;;;;-2.42;100.00;102301.44;5092125;28;20031;-86
2023/01/26 02:58:54;;;;;;;134.07;57.77;;;;;;;-2.33;100.00;102306.22;5098857;28;20046;-85
2023/01/26 03:01:20;;;;;;;144.33;59.13;;;;;;;-2.32;100.00;102307.94;5090689;28;20416;-85
2023/01/26 03:03:45;;;;;;;140.57;58.87;;;;;;;-2.32;100.00;102296.47;5064153;28;20128;-85
2023/01/26 03:06:12;;;;;;;140.10;61.63;;;;;;;-2.32;100.00;102296.47;5088948;28;20031;-79
2023/01/26 03:08:38;;;;;;;131.77;58.50;;;;;;;-2.34;100.00;102295.69;5082215;28;20032;-79
2023/01/26 03:11:04;;;;;;;131.27;58.10;;;;;;;-2.28;100.00;102298.84;5082178;28;20302;-79
2023/01/26 03:13:30;;;;;;;131.57;58.20;;;;;;;-2.29;100.00;102294.47;5085459;28;20113;-79
2023/01/26 03:16:01;;;;;;;128.30;55.97;;;;;;;-2.33;100.00;102300.91;5084983;28;20971;-80
2023/01/26 03:29:26;;;;;;;134.83;57.33;;;;;;;-2.29;100.00;102294.47;5098984;28;20296;-85
2023/01/26 03:31:52;;;;;;;142.70;60.00;;;;;;;-2.25;100.00;102300.47;5081354;28;20347;-79
2023/01/26 03:34:19;;;;;;;155.73;61.30;;;;;;;-2.24;100.00;102300.38;5078430;28;20627;-79
2023/01/26 03:36:45;;;;;;;126.23;56.00;;;;;;;-2.24;100.00;102297.72;5082282;28;20289;-79
2023/01/26 03:41:06;;;;;;;143.03;58.23;;;;;;;-2.17;100.00;102295.53;5095329;28;20289;-85
2023/01/26 03:58:21;;;;;;;113.60;52.10;;;;;;;-2.10;100.00;102288.06;5093510;28;20685;-85
2023/01/26 04:00:48;;;;;;;115.97;51.83;;;;;;;-2.08;100.00;102284.38;5094616;28;20281;-85
2023/01/26 04:08:43;;;;;;;113.83;50.83;;;;;;;-2.00;100.00;102283.03;5101387;28;20305;-85
2023/01/26 04:11:09;;;;;;;117.40;51.43;;;;;;;-1.97;100.00;102291.69;5092906;28;20326;-85
2023/01/26 04:21:46;;;;;;;102.83;49.20;;;;;;;-1.92;100.00;102289.59;5097432;28;21097;-85
2023/01/26 04:24:14;;;;;;;100.30;47.70;;;;;;;-1.89;100.00;102283.22;5090193;28;20380;-85
2023/01/26 04:26:41;;;;;;;104.63;48.73;;;;;;;-1.91;100.00;102285.97;5087089;28;20067;-85
2023/01/26 04:29:12;;;;;;;103.30;48.50;;;;;;;-1.91;100.00;102280.66;5096470;28;20285;-85
2023/01/26 04:31:38;;;;;;;102.37;46.33;;;;;;;-1.87;100.00;102287.47;5097422;27;20374;-80
2023/01/26 04:34:06;;;;;;;98.57;45.93;;;;;;;-1.90;100.00;102287.69;5082817;28;20290;-79
2023/01/26 04:36:33;;;;;;;92.90;45.10;;;;;;;-1.84;100.00;102290.91;5081147;28;21972;-85
2023/01/26 04:38:58;;;;;;;92.20;45.70;;;;;;;-1.81;100.00;102290.72;5090949;28;20289;-85
2023/01/26 04:41:24;;;;;;;88.23;43.70;;;;;;;-1.80;100.00;102287.97;5084293;28;20852;-85
2023/01/26 04:43:50;;;;;;;92.63;44.50;;;;;;;-1.75;100.00;102287.69;5093433;28;20096;-85
2023/01/26 04:46:15;;;;;;;86.33;43.27;;;;;;;-1.75;100.00;102285.88;5091393;28;20043;-85
2023/01/26 04:48:41;;;;;;;88.90;45.97;;;;;;;-1.67;100.00;102292.50;5098854;28;20102;-85
2023/01/26 04:51:13;;;;;;;84.87;42.63;;;;;;;-1.72;100.00;102284.84;5093784;28;20032;-85
2023/01/26 04:53:38;;;;;;;84.33;41.57;;;;;;;-1.72;100.00;102288.34;5094014;28;20050;-85
2023/01/26 04:56:04;;;;;;;81.90;42.27;;;;;;;-1.71;100.00;102281.25;5091488;28;20785;-85
2023/01/26 04:58:31;;;;;;;81.40;41.93;;;;;;;-1.67;100.00;102287.19;5072521;28;20073;-85
2023/01/26 05:00:57;;;;;;;86.47;43.87;;;;;;;-1.67;100.00;102285.41;5080422;28;20024;-85
2023/01/26 05:03:24;;;;;;;82.80;42.73;;;;;;;-1.67;100.00;102280.09;5086419;28;20373;-80
2023/01/26 05:05:51;;;;;;;86.53;43.80;;;;;;;-1.68;100.00;102278.38;5081140;28;20581;-79
2023/01/26 05:08:18;;;;;;;83.13;42.70;;;;;;;-1.68;100.00;102277.53;5077841;28;20306;-80
2023/01/26 05:10:44;;;;;;;66.30;37.03;;;;;;;-1.67;100.00;102277.44;5066842;28;20297;-79
2023/01/26 05:13:09;;;;;;;64.80;37.33;;;;;;;-1.66;100.00;102279.13;5081055;28;20298;-79
2023/01/26 05:15:35;;;;;;;71.17;39.17;;;;;;;-1.62;100.00;102270.03;5081094;28;20027;-79
2023/01/26 05:18:01;;;;;;;67.43;38.90;;;;;;;-1.60;100.00;102277.91;5080237;28;20468;-79
2023/01/26 05:20:26;;;;;;;70.37;38.37;;;;;;;-1.61;100.00;102277.03;5079773;28;20376;-80
2023/01/26 05:22:52;;;;;;;65.93;36.73;;;;;;;-1.62;100.00;102274.47;5069869;28;20476;-80
2023/01/26 05:25:18;;;;;;;67.20;39.13;;;;;;;-1.55;100.00;102278.44;5067832;28;20070;-79
2023/01/26 05:27:44;;;;;;;56.47;33.23;;;;;;;-1.53;100.00;102274.75;5064030;28;20088;-80
2023/01/26 05:30:10;;;;;;;61.40;35.60;;;;;;;-1.56;100.00;102284.72;5080603;28;20351;-80
2023/01/26 05:32:35;;;;;;;57.97;34.13;;;;;;;-1.56;100.00;102282.91;5081992;28;20036;-80
2023/01/26 05:35:02;;;;;;;52.97;32.53;;;;;;;-1.54;100.00;102283.69;5078302;28;20289;-80
2023/01/26 05:37:28;;;;;;;55.97;33.47;;;;;;;-1.56;100.00;102280.25;5078652;28;20035;-79
2023/01/26 05:39:53;;;;;;;57.07;33.03;;;;;;;-1.56;100.00;102282.91;5070797;28;20286;-80
2023/01/26 05:42:20;;;;;;;53.83;32.13;;;;;;;-1.49;100.00;102279.88;5080087;28;21237;-79
2023/01/26 05:44:45;;;;;;;58.20;34.20;;;;;;;-1.48;100.00;102284.22;5083143;28;21842;-79
2023/01/26 05:47:10;;;;;;;58.10;34.00;;;;;;;-1.45;100.00;102281.41;5080592;28;20288;-80
2023/01/26 05:49:40;;;;;;;51.67;31.23;;;;;;;-1.46;100.00;102277.88;5065559;28;20028;-80
2023/01/26 05:52:10;;;;;;;51.87;30.80;;;;;;;-1.48;100.00;102281.56;5082125;28;20463;-80
2023/01/26 05:54:36;;;;;;;48.33;30.10;;;;;;;-1.50;100.00;102279.00;5081302;28;20309;-79
2023/01/26 05:57:02;;;;;;;48.00;29.23;;;;;;;-1.46;100.00;102283.19;5081526;28;20301;-80
2023/01/26 05:59:27;;;;;;;48.93;29.70;;;;;;;-1.46;100.00;102280.53;5084818;28;20664;-79
2023/01/26 06:01:53;;;;;;;51.30;30.20;;;;;;;-1.43;100.00;102285.66;5082696;28;20097;-80
2023/01/26 06:04:18;;;;;;;48.53;29.57;;;;;;;-1.39;100.00;102283.66;5081741;28;20060;-79
2023/01/26 06:06:43;;;;;;;49.83;30.23;;;;;;;-1.38;100.00;102288.84;5086646;28;20032;-86
2023/01/26 06:09:10;;;;;;;47.20;29.40;;;;;;;-1.34;100.00;102289.53;5094781;28;20506;-86
2023/01/26 06:11:35;;;;;;;47.63;28.43;;;;;;;-1.32;100.00;102292.97;5100667;28;20032;-85
2023/01/26 06:14:00;;;;;;;46.57;28.83;;;;;;;-1.37;100.00;102298.56;5103607;28;20365;-86
2023/01/26 06:16:26;;;;;;;47.33;28.40;;;;;;;-1.37;100.00;102295.06;5093031;28;20387;-80
2023/01/26 06:18:52;;;;;;;48.83;28.87;;;;;;;-1.36;100.00;102294.06;5083764;28;20031;-80
2023/01/26 06:21:17;;;;;;;50.37;30.00;;;;;;;-1.32;100.00;102292.09;5069651;28;20301;-80
2023/01/26 06:23:43;;;;;;;47.73;28.97;;;;;;;-1.37;100.00;102295.88;5072946;28;20031;-80
2023/01/26 06:26:08;;;;;;;44.77;27.13;;;;;;;-1.40;100.00;102297.88;5068935;28;20429;-80
2023/01/26 06:28:34;;;;;;;43.30;26.80;;;;;;;-1.34;100.00;102286.88;5082251;28;20055;-80
2023/01/26 06:31:05;;;;;;;44.33;26.93;;;;;;;-1.38;100.00;102290.69;5064742;28;20040;-79
2023/01/26 06:33:35;;;;;;;45.53;28.30;;;;;;;-1.35;100.00;102293.13;5090268;28;20365;-80
2023/01/26 06:36:09;;;;;;;48.67;29.90;;;;;;;-1.39;100.00;102299.59;5084940;28;20691;-80
2023/01/26 06:38:35;;;;;;;45.83;28.20;;;;;;;-1.37;100.00;102298.56;5099442;27;20362;-80
2023/01/26 06:41:05;;;;;;;46.20;29.03;;;;;;;-1.33;100.00;102314.31;5083262;28;20845;-79
2023/01/26 06:43:33;;;;;;;45.47;27.80;;;;;;;-1.31;100.00;102304.44;5082172;28;20028;-80
2023/01/26 06:45:59;;;;;;;47.77;28.77;;;;;;;-1.30;100.00;102306.16;5081560;28;20294;-80
2023/01/26 06:48:26;;;;;;;45.63;28.23;;;;;;;-1.24;100.00;102313.72;5083005;28;20300;-80
2023/01/26 06:50:55;;;;;;;49.77;28.70;;;;;;;-1.27;100.00;102301.47;5080411;28;20432;-80
2023/01/26 06:53:33;;;;;;;46.13;27.80;;;;;;;-1.21;100.00;102309.06;5097833;27;20301;-80
2023/01/26 06:55:59;;;;;;;47.37;28.30;;;;;;;-1.20;100.00;102307.25;5084646;28;20281;-80
2023/01/26 06:58:24;;;;;;;48.97;29.97;;;;;;;-1.21;100.00;102306.41;5081498;28;20870;-85
2023/01/26 07:00:50;;;;;;;48.97;28.57;;;;;;;-1.23;100.00;102308.31;5093921;28;20044;-85
2023/01/26 07:03:16;;;;;;;49.73;29.70;;;;;;;-1.21;100.00;102310.84;5095150;28;20186;-86
2023/01/26 07:05:41;;;;;;;46.63;28.13;;;;;;;-1.20;100.00;102312.56;5084354;28;20028;-86
2023/01/26 07:08:07;;;;;;;49.33;28.83;;;;;;;-1.20;100.00;102302.81;5078806;28;20103;-79
2023/01/26 07:10:34;;;;;;;50.67;30.83;;;;;;;-1.14;100.00;102320.16;5081379;28;20470;-79
2023/01/26 07:12:59;;;;;;;52.03;29.93;;;;;;;-1.17;100.00;102308.88;5082185;28;20416;-80
2023/01/26 07:15:24;;;;;;;52.10;30.20;;;;;;;-1.15;100.00;102320.28;5082184;28;20302;-80
2023/01/26 07:17:50;;;;;;;52.27;30.77;;;;;;;-1.15;100.00;102315.78;5067899;28;20065;-80
2023/01/26 07:20:15;;;;;;;52.27;30.00;;;;;;;-1.12;100.00;102322.72;5082037;28;20028;-80
2023/01/26 07:22:41;;;;;;;50.23;29.13;;;;;;;-1.04;100.00;102317.75;5069158;28;21023;-80
2023/01/26 07:25:06;;;;;;;52.83;29.20;;;;;;;-1.12;100.00;102320.91;5067770;28;20031;-80
2023/01/26 07:27:32;;;;;;;48.63;27.97;;;;;;;-1.06;100.00;102319.66;5064946;28;20039;-80
2023/01/26 07:29:57;;;;;;;50.60;29.27;;;;;;;-1.13;100.00;102319.22;5069282;28;20031;-86
2023/01/26 07:32:23;;;;;;;50.00;28.70;;;;;;;-1.10;100.00;102312.81;5092218;28;20020;-86
2023/01/26 07:34:48;;;;;;;50.47;28.10;;;;;;;-1.17;100.00;102309.69;5084880;28;20032;-80
2023/01/26 07:37:14;;;;;;;51.47;28.60;;;;;;;-1.16;100.00;102318.56;5083236;28;20051;-80
2023/01/26 07:39:39;;;;;;;55.10;29.47;;;;;;;-1.17;100.00;102314.19;5082922;28;20403;-80
2023/01/26 07:42:04;;;;;;;50.93;28.37;;;;;;;-1.13;100.00;102315.69;5065876;28;20032;-80
2023/01/26 07:44:30;;;;;;;54.80;29.93;;;;;;;-1.13;100.00;102318.34;5094048;28;20043;-86
2023/01/26 07:46:56;;;;;;;58.80;29.57;;;;;;;-1.17;100.00;102335.47;5092969;28;20119;-86
2023/01/26 07:49:21;;;;;;;57.30;29.30;;;;;;;-1.15;100.00;102326.44;5096128;28;20031;-86
2023/01/26 07:51:47;;;;;;;57.20;29.93;;;;;;;-1.15;100.00;102334.41;5093185;28;20289;-80
2023/01/26 07:54:12;;;;;;;60.70;29.93;;;;;;;-1.10;100.00;102342.09;5088223;28;20147;-86
2023/01/26 07:56:37;;;;;;;59.97;30.37;;;;;;;-1.09;100.00;102333.16;5099725;28;20052;-87
2023/01/26 07:59:03;;;;;;;56.03;29.67;;;;;;;-1.01;100.00;102336.19;5097825;28;20402;-86
2023/01/26 08:01:29;;;;;;;62.17;29.10;;;;;;;-1.08;100.00;102342.84;5090250;28;20024;-87
2023/01/26 08:03:55;;;;;;;57.73;28.93;;;;;;;-1.01;100.00;102354.81;5094031;28;20082;-86
2023/01/26 08:06:21;;;;;;;63.17;29.37;;;;;;;-1.07;100.00;102344.56;5097044;28;20309;-86
2023/01/26 08:08:52;;;;;;;63.63;29.23;;;;;;;-1.10;100.00;102353.59;5092897;28;20168;-87
2023/01/26 08:11:18;;;;;;;67.70;29.77;;;;;;;-1.14;100.00;102356.53;5100512;28;20766;-86
2023/01/26 08:13:44;;;;;;;69.50;31.43;;;;;;;-1.15;100.00;102347.72;5099711;28;20296;-86
2023/01/26 08:16:13;;;;;;;71.90;31.47;;;;;;;-1.15;100.00;102358.34;5096709;28;20293;-86
2023/01/26 08:18:44;;;;;;;82.40;32.50;;;;;;;-1.15;100.00;102352.19;5088358;28;20074;-86
2023/01/26 08:21:11;;;;;;;75.47;31.97;;;;;;;-1.14;100.00;102349.44;5094654;28;20289;-86
2023/01/26 08:23:37;;;;;;;84.10;32.00;;;;;;;-1.14;100.00;102359.19;5092952;28;20277;-86
2023/01/26 08:26:08;;;;;;;86.47;33.90;;;;;;;-1.15;100.00;102354.84;5097098;28;20297;-86
2023/01/26 08:28:34;;;;;;;80.90;32.47;;;;;;;-1.15;100.00;102357.50;5096142;28;20020;-86
2023/01/26 08:31:10;;;;;;;80.23;32.40;;;;;;;-1.12;100.00;102352.00;5078775;28;20325;-79
2023/01/26 08:33:36;;;;;;;74.20;32.53;;;;;;;-1.00;100.00;102361.84;5076963;28;20293;-80
2023/01/26 08:36:03;;;;;;;82.30;34.23;;;;;;;-1.07;100.00;102358.72;5079884;28;20298;-80
2023/01/26 08:38:32;;;;;;;91.63;34.23;;;;;;;-1.09;100.00;102359.75;5079722;28;20239;-80
2023/01/26 08:40:58;;;;;;;86.70;35.37;;;;;;;-1.08;100.00;102370.31;5076633;28;20289;-80
2023/01/26 08:43:24;;;;;;;86.27;33.47;;;;;;;-1.05;100.00;102370.13;5079962;28;20304;-79
2023/01/26 08:45:49;;;;;;;92.67;36.07;;;;;;;-1.06;100.00;102370.19;5077054;28;20768;-80
2023/01/26 08:48:15;;;;;;;100.63;36.13;;;;;;;-1.07;100.00;102364.03;5075787;28;20040;-80
2023/01/26 08:50:40;;;;;;;95.83;36.90;;;;;;;-1.07;100.00;102368.50;5069106;28;21099;-80
2023/01/26 08:53:05;;;;;;;92.50;35.33;;;;;;;-1.08;100.00;102370.31;5079749;28;20097;-79
2023/01/26 08:55:32;;;;;;;83.53;34.87;;;;;;;-1.00;100.00;102369.81;5079790;28;20020;-80
2023/01/26 08:57:58;;;;;;;107.40;38.93;;;;;;;-1.01;100.00;102370.75;5077799;28;20060;-80
2023/01/26 09:00:23;;;;;;;91.63;35.93;;;;;;;-0.94;100.00;102369.44;5078992;28;20309;-80
2023/01/26 09:02:50;;;;;;;112.77;37.87;;;;;;;-0.93;100.00;102370.28;5077902;28;20028;-80
2023/01/26 09:05:15;;;;;;;88.90;34.70;;;;;;;-0.83;100.00;102357.22;5079002;28;21825;-80
2023/01/26 09:07:40;;;;;;;125.60;38.47;;;;;;;-0.83;100.00;102357.22;5078629;28;20297;-80
2023/01/26 09:10:07;;;;;;;117.20;38.83;;;;;;;-0.80;100.00;102363.22;5062860;28;20068;-80
2023/01/26 09:12:32;;;;;;;163.00;42.27;;;;;;;-0.80;100.00;102365.00;5085489;28;20153;-80
2023/01/26 09:14:57;;;;;;;217.60;44.50;;;;;;;-0.79;100.00;102364.06;5064981;28;20384;-79
2023/01/26 09:17:23;;;;;;;203.80;43.83;;;;;;;-0.82;100.00;102359.78;5060817;28;20043;-79
2023/01/26 09:19:48;;;;;;;130.53;38.63;;;;;;;-0.74;100.00;102365.47;5077071;28;20031;-80
2023/01/26 09:22:13;;;;;;;159.80;40.73;;;;;;;-0.75;100.00;102370.88;5077955;28;20043;-80
2023/01/26 09:24:39;;;;;;;110.53;38.90;;;;;;;-0.70;100.00;102369.63;5061763;28;20029;-79
2023/01/26 09:27:04;;;;;;;151.23;41.20;;;;;;;-0.74;100.00;102372.59;5077232;28;20102;-80
2023/01/26 09:29:29;;;;;;;164.17;41.90;;;;;;;-0.74;100.00;102372.59;5077783;28;20483;-80
2023/01/26 09:31:55;;;;;;;177.13;42.33;;;;;;;-0.75;100.00;102378.88;5080857;28;20036;-80
2023/01/26 09:34:20;;;;;;;162.50;42.50;;;;;;;-0.74;100.00;102375.25;5090905;28;20491;-86
2023/01/26 09:36:46;;;;;;;136.87;42.83;;;;;;;-0.75;100.00;102387.72;5106981;28;20032;-86
2023/01/26 09:39:11;;;;;;;159.97;43.97;;;;;;;-0.73;100.00;102384.97;5087888;28;21030;-86
2023/01/26 09:42:09;;;;;;;145.23;44.03;;;;;;;-0.66;100.00;102388.09;5099226;28;20075;-86
2023/01/26 09:44:44;;;;;;;121.57;41.17;;;;;;;-0.67;100.00;102384.56;5068880;28;20132;-79
2023/01/26 09:47:21;;;;;;;151.20;43.43;;;;;;;-0.71;100.00;102375.06;5083169;28;20345;-80
2023/01/26 09:50:00;;;;;;;170.63;46.07;;;;;;;-0.68;100.00;102382.84;5086048;28;20305;-80
2023/01/26 09:52:34;;;;;;;155.47;45.33;;;;;;;-0.70;100.00;102374.09;5082473;28;20430;-80
2023/01/26 09:55:04;;;;;;;137.77;44.47;;;;;;;-0.61;100.00;102372.63;5084364;28;20298;-80
2023/01/26 09:57:40;;;;;;;191.60;47.20;;;;;;;-0.60;100.00;102377.88;5096237;28;20836;-86
2023/01/26 10:00:14;;;;;;;163.67;45.43;;;;;;;-0.53;100.00;102387.16;5089857;28;20296;-86
2023/01/26 10:02:58;;;;;;;156.27;44.10;;;;;;;-0.49;100.00;102381.63;5101666;28;20294;-87
2023/01/26 10:05:42;;;;;;;161.87;45.23;;;;;;;-0.45;100.00;102383.13;5101881;28;20034;-86
2023/01/26 10:08:12;;;;;;;165.50;44.97;;;;;;;-0.47;100.00;102385.06;5086804;28;20270;-80
2023/01/26 10:10:45;;;;;;;170.73;47.27;;;;;;;-0.42;100.00;102380.25;5084890;28;21582;-80
2023/01/26 10:13:14;;;;;;;185.13;48.47;;;;;;;-0.38;100.00;102381.75;5081756;28;20375;-80
2023/01/26 10:15:48;;;;;;;160.00;46.23;;;;;;;-0.32;100.00;102383.19;5084307;28;20304;-80
2023/01/26 10:18:22;;;;;;;130.60;43.45;;;;;;;-0.22;100.00;102369.16;5083470;28;20416;-80
2023/01/26 10:20:52;;;;;;;132.10;43.35;;;;;;;-0.11;100.00;102375.56;5080291;28;20385;-80
2023/01/26 10:23:27;;;;;;;177.20;46.93;;;;;;;-0.09;100.00;102368.31;5082237;28;20024;-80
2023/01/26 10:26:00;;;;;;;173.20;47.03;;;;;;;-0.10;100.00;102371.94;5085590;28;20310;-80
2023/01/26 10:28:29;;;;;;;139.83;44.57;;;;;;;0.02;100.00;102376.44;5081476;28;20028;-80
2023/01/26 10:30:54;;;;;;;160.33;45.83;;;;;;;0.03;100.00;102377.25;5085112;28;20581;-80
2023/01/26 10:33:42;;;;;;;177.63;48.37;;;;;;;0.13;100.00;102379.19;5075037;28;20119;-88
2023/01/26 10:36:11;;;;;;;163.60;46.63;;;;;;;0.19;100.00;102380.63;5101736;28;20024;-88
2023/01/26 10:38:36;;;;;;;206.70;47.73;;;;;;;0.22;100.00;102390.19;5091430;28;20756;-87
2023/01/26 10:41:06;;;;;;;189.10;47.13;;;;;;;0.37;100.00;102390.94;5096291;28;20031;-88
2023/01/26 10:43:40;;;;;;;198.37;48.43;;;;;;;0.37;100.00;102391.81;5086882;28;20032;-87
2023/01/26 10:46:21;;;;;;;156.10;43.50;;;;;;;0.39;100.00;102389.03;5096564;28;20032;-88
2023/01/26 10:49:13;;;;;;;129.90;42.60;;;;;;;0.49;100.00;102392.75;5096294;28;21918;-86
2023/01/26 10:51:43;;;;;;;152.10;43.07;;;;;;;0.56;100.00;102388.69;5101754;28;20027;-88
2023/01/26 10:54:19;;;;;;;121.57;42.37;;;;;;;0.76;100.00;102383.75;5069063;28;20065;-80
2023/01/26 10:56:51;;;;;;;130.10;41.47;;;;;;;0.82;100.00;102392.19;5074430;28;20046;-80
2023/01/26 10:59:37;;;;;;;107.23;39.87;;;;;;;0.96;100.00;102388.50;5073658;28;20040;-80
2023/01/26 11:02:18;;;;;;;125.13;40.90;;;;;;;1.04;100.00;102381.78;5083736;28;20028;-80
2023/01/26 11:05:02;;;;;;;140.47;42.67;;;;;;;1.15;100.00;102385.34;5092237;28;20099;-88
2023/01/26 11:07:33;;;;;;;132.95;41.75;;;;;;;1.16;100.00;102380.91;5077311;28;20027;-87
2023/01/26 11:10:21;;;;;;;119.90;39.07;;;;;;;1.28;100.00;102377.31;5091504;28;20035;-87
2023/01/26 11:12:47;;;;;;;111.73;38.17;;;;;;;1.35;100.00;102372.38;5087104;28;20032;-87
2023/01/26 11:15:21;;;;;;;112.77;39.13;;;;;;;1.44;100.00;102379.72;5096443;28;20483;-87
2023/01/26 11:18:03;;;;;;;107.90;39.80;;;;;;;1.49;100.00;102377.53;5084343;28;20032;-88
2023/01/26 11:20:28;;;;;;;99.00;36.87;;;;;;;1.68;100.00;102378.84;5093031;28;20013;-88
2023/01/26 11:23:07;;;;;;;100.87;36.73;;;;;;;1.80;100.00;102382.41;5093739;28;20024;-87
2023/01/26 11:26:04;;;;;;;102.07;37.40;;;;;;;1.81;100.00;102376.94;5090363;28;20107;-87
2023/01/26 11:28:46;;;;;;;103.60;38.07;;;;;;;1.78;100.00;102385.19;5070404;28;20028;-88
2023/01/26 11:31:19;;;;;;;86.83;33.63;;;;;;;1.94;100.00;102384.88;5079988;28;20077;-88
2023/01/26 11:33:56;;;;;;;107.83;36.90;;;;;;;1.90;100.00;102385.22;5092321;28;20266;-87
2023/01/26 11:36:47;;;;;;;110.07;36.77;;;;;;;2.05;100.00;102392.06;5089630;28;20027;-88
2023/01/26 11:39:25;;;;;;;95.67;36.97;;;;;;;2.24;100.00;102380.78;5091025;28;20074;-88
2023/01/26 11:42:05;;;;;;;97.50;37.57;;;;;;;2.33;100.00;102372.06;5086566;28;20035;-88
2023/01/26 11:44:44;;;;;;;90.10;36.50;;;;;;;2.44;100.00;102368.53;5101140;28;20047;-87
2023/01/26 11:47:24;;;;;;;88.87;36.53;;;;;;;2.61;100.00;102369.03;5094147;28;20020;-88
2023/01/26 11:50:02;;;;;;;84.27;33.90;;;;;;;3.02;100.00;102365.72;5115087;27;20090;-88
2023/01/26 11:52:47;;;;;;;77.33;33.53;;;;;;;3.20;100.00;102367.88;5088707;28;21777;-81